sensor_id;sensor_type;location;lat;lon;timestamp;pressure;altitude;pressure_sealevel;temperature;humidity
78198;BME280;67472;51.554;7.812;2023-04-29T00:00:20;100518.22;;;12.38;100.00
78198;BME280;67472;51.554;7.812;2023-04-29T00:03:07;100517.94;;;12.41;100.00
78198;BME280;67472;51.554;7.812;2023-04-29T00:05:53;100504.41;;;12.25;100.00
78198;BME280;67472;51.554;7.812;2023-04-29T00:08:39;100509.44;;;12.28;100.00
78198;BME280;67472;51.554;7.812;2023-04-29T00:11:26;100512.78;;;12.30;100.00
78198;BME280;67472;51.554;7.812;2023-04-29T00:14:12;100511.09;;;12.29;100.00
78198;BME280;67472;51.554;7.812;2023-04-29T00:17:00;100511.38;;;12.26;100.00
78198;BME280;67472;51.554;7.812;2023-04-29T00:19:47;100509.16;;;12.22;100.00
78198;BME280;67472;51.554;7.812;2023-04-29T00:22:34;100519.22;;;12.18;100.00
78198;BME280;67472;51.554;7.812;2023-04-29T00:25:20;100517.53;;;12.27;100.00
78198;BME280;67472;51.554;7.812;2023-04-29T00:28:07;100520.59;;;12.22;100.00
78198;BME280;67472;51.554;7.812;2023-04-29T00:30:53;100531.44;;;12.19;100.00
78198;BME280;67472;51.554;7.812;2023-04-29T00:33:41;100522.97;;;12.06;100.00
78198;BME280;67472;51.554;7.812;2023-04-29T00:36:27;100528.41;;;12.05;100.00
78198;BME280;67472;51.554;7.812;2023-04-29T00:39:15;100534.69;;;12.04;100.00
78198;BME280;67472;51.554;7.812;2023-04-29T00:42:01;100542.34;;;11.97;100.00
78198;BME280;67472;51.554;7.812;2023-04-29T00:44:48;100535.09;;;12.09;100.00
78198;BME280;67472;51.554;7.812;2023-04-29T00:47:34;100543.03;;;11.99;100.00
78198;BME280;67472;51.554;7.812;2023-04-29T00:50:22;100548.34;;;12.09;100.00
78198;BME280;67472;51.554;7.812;2023-04-29T00:53:09;100540.38;;;12.09;100.00
78198;BME280;67472;51.554;7.812;2023-04-29T00:55:56;100549.84;;;12.02;100.00
78198;BME280;67472;51.554;7.812;2023-04-29T00:58:44;100553.91;;;12.15;100.00
78198;BME280;67472;51.554;7.812;2023-04-29T01:01:33;100558.66;;;11.93;100.00
78198;BME280;67472;51.554;7.812;2023-04-29T01:04:21;100564.34;;;11.98;100.00
78198;BME280;67472;51.554;7.812;2023-04-29T01:07:14;100564.06;;;11.91;100.00
78198;BME280;67472;51.554;7.812;2023-04-29T01:10:04;100569.63;;;11.88;100.00
78198;BME280;67472;51.554;7.812;2023-04-29T01:12:59;100575.78;;;11.98;100.00
78198;BME280;67472;51.554;7.812;2023-04-29T01:15:55;100572.72;;;11.83;100.00
78198;BME280;67472;51.554;7.812;2023-04-29T01:18:53;100581.75;;;11.81;100.00
78198;BME280;67472;51.554;7.812;2023-04-29T01:21:45;100587.19;;;11.79;100.00
78198;BME280;67472;51.554;7.812;2023-04-29T01:24:35;100593.59;;;11.77;100.00
78198;BME280;67472;51.554;7.812;2023-04-29T01:27:28;100594.28;;;11.69;100.00
78198;BME280;67472;51.554;7.812;2023-04-29T01:30:31;100603.03;;;11.70;100.00
78198;BME280;67472;51.554;7.812;2023-04-29T01:33:25;100610.09;;;11.60;100.00
78198;BME280;67472;51.554;7.812;2023-04-29T01:36:21;100616.19;;;11.51;100.00
78198;BME280;67472;51.554;7.812;2023-04-29T01:39:13;100621.06;;;11.55;100.00
78198;BME280;67472;51.554;7.812;2023-04-29T01:42:14;100628.59;;;11.60;100.00
78198;BME280;67472;51.554;7.812;2023-04-29T01:45:06;100629.44;;;11.60;100.00
78198;BME280;67472;51.554;7.812;2023-04-29T01:47:53;100627.91;;;11.58;100.00
78198;BME280;67472;51.554;7.812;2023-04-29T01:50:41;100631.25;;;11.60;100.00
78198;BME280;67472;51.554;7.812;2023-04-29T01:53:33;100632.59;;;11.45;100.00
78198;BME280;67472;51.554;7.812;2023-04-29T01:56:20;100640.41;;;11.46;100.00
78198;BME280;67472;51.554;7.812;2023-04-29T01:59:30;100636.59;;;11.39;100.00
78198;BME280;67472;51.554;7.812;2023-04-29T02:02:25;100639.66;;;11.34;100.00
78198;BME280;67472;51.554;7.812;2023-04-29T02:05:19;100647.00;;;11.31;100.00
78198;BME280;67472;51.554;7.812;2023-04-29T02:08:13;100647.97;;;11.30;100.00
78198;BME280;67472;51.554;7.812;2023-04-29T02:11:02;100649.50;;;11.32;100.00
78198;BME280;67472;51.554;7.812;2023-04-29T02:13:57;100660.97;;;11.43;100.00
78198;BME280;67472;51.554;7.812;2023-04-29T02:16:45;100665.84;;;11.38;100.00
78198;BME280;67472;51.554;7.812;2023-04-29T02:19:32;100663.75;;;11.41;100.00
78198;BME280;67472;51.554;7.812;2023-04-29T02:22:19;100663.88;;;11.40;100.00
78198;BME280;67472;51.554;7.812;2023-04-29T02:25:06;100664.47;;;11.43;100.00
78198;BME280;67472;51.554;7.812;2023-04-29T02:27:52;100665.00;;;11.37;100.00
78198;BME280;67472;51.554;7.812;2023-04-29T02:30:39;100676.69;;;11.34;100.00
78198;BME280;67472;51.554;7.812;2023-04-29T02:33:26;100682.41;;;11.40;100.00
78198;BME280;67472;51.554;7.812;2023-04-29T02:36:13;100688.28;;;11.43;100.00
78198;BME280;67472;51.554;7.812;2023-04-29T02:38:59;100683.03;;;11.02;100.00
78198;BME280;67472;51.554;7.812;2023-04-29T02:41:46;100685.00;;;11.09;100.00
78198;BME280;67472;51.554;7.812;2023-04-29T02:44:32;100693.16;;;10.97;100.00
78198;BME280;67472;51.554;7.812;2023-04-29T02:47:18;100686.69;;;11.10;100.00
78198;BME280;67472;51.554;7.812;2023-04-29T02:50:07;100680.91;;;10.96;100.00
78198;BME280;67472;51.554;7.812;2023-04-29T02:52:53;100691.56;;;10.94;100.00
78198;BME280;67472;51.554;7.812;2023-04-29T02:55:40;100693.78;;;11.10;100.00
78198;BME280;67472;51.554;7.812;2023-04-29T02:58:28;100689.72;;;11.06;100.00
78198;BME280;67472;51.554;7.812;2023-04-29T03:01:14;100689.47;;;10.88;100.00
78198;BME280;67472;51.554;7.812;2023-04-29T03:04:00;100687.91;;;10.86;100.00
78198;BME280;67472;51.554;7.812;2023-04-29T03:06:48;100694.94;;;10.75;100.00
78198;BME280;67472;51.554;7.812;2023-04-29T03:09:35;100700.88;;;10.68;100.00
78198;BME280;67472;51.554;7.812;2023-04-29T03:12:21;100703.03;;;10.63;100.00
78198;BME280;67472;51.554;7.812;2023-04-29T03:15:08;100711.78;;;10.63;100.00
78198;BME280;67472;51.554;7.812;2023-04-29T03:17:55;100712.00;;;10.71;100.00
78198;BME280;67472;51.554;7.812;2023-04-29T03:20:43;100710.53;;;10.78;100.00
78198;BME280;67472;51.554;7.812;2023-04-29T03:23:31;100703.81;;;10.74;100.00
78198;BME280;67472;51.554;7.812;2023-04-29T03:26:19;100711.88;;;10.73;100.00
78198;BME280;67472;51.554;7.812;2023-04-29T03:29:06;100712.84;;;10.72;100.00
78198;BME280;67472;51.554;7.812;2023-04-29T03:31:53;100713.19;;;10.78;100.00
78198;BME280;67472;51.554;7.812;2023-04-29T03:34:41;100711.56;;;10.87;100.00
78198;BME280;67472;51.554;7.812;2023-04-29T03:37:47;100707.25;;;10.86;100.00
78198;BME280;67472;51.554;7.812;2023-04-29T03:40:42;100709.84;;;10.76;100.00
78198;BME280;67472;51.554;7.812;2023-04-29T03:43:29;100716.97;;;10.86;100.00
78198;BME280;67472;51.554;7.812;2023-04-29T03:46:15;100707.56;;;10.72;100.00
78198;BME280;67472;51.554;7.812;2023-04-29T03:49:01;100706.25;;;10.66;100.00
78198;BME280;67472;51.554;7.812;2023-04-29T03:51:48;100715.28;;;10.64;100.00
78198;BME280;67472;51.554;7.812;2023-04-29T03:54:35;100713.28;;;10.77;100.00
78198;BME280;67472;51.554;7.812;2023-04-29T03:57:23;100718.63;;;10.66;100.00
78198;BME280;67472;51.554;7.812;2023-04-29T04:00:12;100723.25;;;10.53;100.00
78198;BME280;67472;51.554;7.812;2023-04-29T04:02:59;100729.88;;;10.47;100.00
78198;BME280;67472;51.554;7.812;2023-04-29T04:05:45;100744.97;;;10.45;100.00
78198;BME280;67472;51.554;7.812;2023-04-29T04:08:33;100746.47;;;10.38;100.00
78198;BME280;67472;51.554;7.812;2023-04-29T04:11:28;100751.34;;;10.43;100.00
78198;BME280;67472;51.554;7.812;2023-04-29T04:14:19;100752.44;;;10.40;100.00
78198;BME280;67472;51.554;7.812;2023-04-29T04:17:05;100759.91;;;10.35;100.00
78198;BME280;67472;51.554;7.812;2023-04-29T04:19:54;100765.28;;;10.45;100.00
78198;BME280;67472;51.554;7.812;2023-04-29T04:22:40;100770.44;;;10.46;100.00
78198;BME280;67472;51.554;7.812;2023-04-29T04:25:47;100771.53;;;10.44;100.00
78198;BME280;67472;51.554;7.812;2023-04-29T04:28:56;100777.69;;;10.33;100.00
78198;BME280;67472;51.554;7.812;2023-04-29T04:32:07;100781.97;;;10.34;100.00
78198;BME280;67472;51.554;7.812;2023-04-29T04:34:56;100790.75;;;10.35;100.00
78198;BME280;67472;51.554;7.812;2023-04-29T04:37:42;100794.94;;;10.37;100.00
78198;BME280;67472;51.554;7.812;2023-04-29T04:40:28;100804.41;;;10.40;100.00
78198;BME280;67472;51.554;7.812;2023-04-29T04:43:31;100798.09;;;10.20;100.00
78198;BME280;67472;51.554;7.812;2023-04-29T04:46:18;100807.56;;;10.23;100.00
78198;BME280;67472;51.554;7.812;2023-04-29T04:49:18;100809.97;;;10.26;100.00
78198;BME280;67472;51.554;7.812;2023-04-29T04:52:08;100823.63;;;10.42;100.00
78198;BME280;67472;51.554;7.812;2023-04-29T04:54:55;100827.09;;;10.42;100.00
78198;BME280;67472;51.554;7.812;2023-04-29T04:57:46;100822.91;;;10.40;100.00
78198;BME280;67472;51.554;7.812;2023-04-29T05:00:33;100817.63;;;10.29;100.00
78198;BME280;67472;51.554;7.812;2023-04-29T05:03:20;100838.66;;;10.30;100.00
78198;BME280;67472;51.554;7.812;2023-04-29T05:06:07;100841.53;;;10.27;100.00
78198;BME280;67472;51.554;7.812;2023-04-29T05:08:55;100849.03;;;10.54;100.00
78198;BME280;67472;51.554;7.812;2023-04-29T05:11:42;100850.38;;;10.48;100.00
78198;BME280;67472;51.554;7.812;2023-04-29T05:14:31;100853.03;;;10.37;100.00
78198;BME280;67472;51.554;7.812;2023-04-29T05:17:39;100852.53;;;10.43;100.00
78198;BME280;67472;51.554;7.812;2023-04-29T05:20:39;100856.50;;;10.38;100.00
78198;BME280;67472;51.554;7.812;2023-04-29T05:23:27;100860.72;;;10.40;100.00
78198;BME280;67472;51.554;7.812;2023-04-29T05:26:13;100858.28;;;10.48;100.00
78198;BME280;67472;51.554;7.812;2023-04-29T05:28:59;100862.88;;;10.46;100.00
78198;BME280;67472;51.554;7.812;2023-04-29T05:31:49;100865.50;;;10.57;100.00
78198;BME280;67472;51.554;7.812;2023-04-29T05:34:36;100867.66;;;10.63;100.00
78198;BME280;67472;51.554;7.812;2023-04-29T05:37:22;100864.66;;;10.46;100.00
78198;BME280;67472;51.554;7.812;2023-04-29T05:40:36;100868.16;;;10.46;100.00
78198;BME280;67472;51.554;7.812;2023-04-29T05:43:55;100880.16;;;10.50;100.00
78198;BME280;67472;51.554;7.812;2023-04-29T05:46:41;100880.72;;;10.54;100.00
78198;BME280;67472;51.554;7.812;2023-04-29T05:49:28;100889.16;;;10.59;100.00
78198;BME280;67472;51.554;7.812;2023-04-29T05:52:14;100891.44;;;10.41;100.00
78198;BME280;67472;51.554;7.812;2023-04-29T05:55:04;100894.31;;;10.38;100.00
78198;BME280;67472;51.554;7.812;2023-04-29T05:57:53;100901.75;;;10.55;100.00
78198;BME280;67472;51.554;7.812;2023-04-29T06:00:39;100905.72;;;10.50;100.00
78198;BME280;67472;51.554;7.812;2023-04-29T06:03:33;100915.31;;;10.51;100.00
78198;BME280;67472;51.554;7.812;2023-04-29T06:06:38;100906.31;;;10.42;100.00
78198;BME280;67472;51.554;7.812;2023-04-29T06:09:24;100917.25;;;10.38;100.00
78198;BME280;67472;51.554;7.812;2023-04-29T06:12:12;100920.59;;;10.40;100.00
78198;BME280;67472;51.554;7.812;2023-04-29T06:15:02;100931.41;;;10.59;100.00
78198;BME280;67472;51.554;7.812;2023-04-29T06:17:48;100925.63;;;10.43;100.00
78198;BME280;67472;51.554;7.812;2023-04-29T06:20:34;100939.09;;;10.40;100.00
78198;BME280;67472;51.554;7.812;2023-04-29T06:23:20;100938.84;;;10.43;100.00
78198;BME280;67472;51.554;7.812;2023-04-29T06:26:08;100945.22;;;10.29;100.00
78198;BME280;67472;51.554;7.812;2023-04-29T06:28:54;100951.09;;;10.33;100.00
78198;BME280;67472;51.554;7.812;2023-04-29T06:31:42;100946.84;;;10.19;100.00
78198;BME280;67472;51.554;7.812;2023-04-29T06:34:28;100951.41;;;10.17;100.00
78198;BME280;67472;51.554;7.812;2023-04-29T06:37:35;100954.91;;;10.17;100.00
78198;BME280;67472;51.554;7.812;2023-04-29T06:40:31;100953.53;;;10.01;100.00
78198;BME280;67472;51.554;7.812;2023-04-29T06:43:49;100967.19;;;9.95;100.00
78198;BME280;67472;51.554;7.812;2023-04-29T06:46:55;100972.44;;;9.84;100.00
78198;BME280;67472;51.554;7.812;2023-04-29T06:49:57;100979.41;;;9.96;100.00
78198;BME280;67472;51.554;7.812;2023-04-29T06:52:44;100987.22;;;9.97;100.00
78198;BME280;67472;51.554;7.812;2023-04-29T06:55:30;100992.66;;;10.07;100.00
78198;BME280;67472;51.554;7.812;2023-04-29T06:58:18;101007.03;;;10.03;100.00
78198;BME280;67472;51.554;7.812;2023-04-29T07:01:04;101008.78;;;10.15;100.00
78198;BME280;67472;51.554;7.812;2023-04-29T07:03:54;101018.34;;;10.16;100.00
78198;BME280;67472;51.554;7.812;2023-04-29T07:06:40;101022.69;;;10.17;100.00
78198;BME280;67472;51.554;7.812;2023-04-29T07:09:31;101031.78;;;10.13;100.00
78198;BME280;67472;51.554;7.812;2023-04-29T07:12:17;101035.38;;;10.12;100.00
78198;BME280;67472;51.554;7.812;2023-04-29T07:15:04;101034.94;;;9.94;100.00
78198;BME280;67472;51.554;7.812;2023-04-29T07:17:50;101049.66;;;10.09;100.00
78198;BME280;67472;51.554;7.812;2023-04-29T07:20:39;101045.53;;;10.05;100.00
78198;BME280;67472;51.554;7.812;2023-04-29T07:23:26;101056.41;;;10.25;100.00
78198;BME280;67472;51.554;7.812;2023-04-29T07:26:13;101057.34;;;10.12;100.00
78198;BME280;67472;51.554;7.812;2023-04-29T07:29:02;101065.31;;;10.24;100.00
78198;BME280;67472;51.554;7.812;2023-04-29T07:31:48;101071.22;;;10.27;100.00
78198;BME280;67472;51.554;7.812;2023-04-29T07:34:35;101074.69;;;10.28;100.00
78198;BME280;67472;51.554;7.812;2023-04-29T07:37:23;101078.16;;;10.04;100.00
78198;BME280;67472;51.554;7.812;2023-04-29T07:40:11;101076.38;;;10.05;100.00
78198;BME280;67472;51.554;7.812;2023-04-29T07:42:57;101079.41;;;10.11;100.00
78198;BME280;67472;51.554;7.812;2023-04-29T07:45:48;101092.81;;;10.08;100.00
78198;BME280;67472;51.554;7.812;2023-04-29T07:48:36;101100.34;;;10.02;100.00
78198;BME280;67472;51.554;7.812;2023-04-29T07:51:23;101103.38;;;10.08;100.00
78198;BME280;67472;51.554;7.812;2023-04-29T07:54:14;101122.66;;;10.21;100.00
78198;BME280;67472;51.554;7.812;2023-04-29T07:57:01;101122.91;;;10.18;100.00
78198;BME280;67472;51.554;7.812;2023-04-29T07:59:50;101135.47;;;10.15;100.00
78198;BME280;67472;51.554;7.812;2023-04-29T08:02:37;101134.19;;;10.20;100.00
78198;BME280;67472;51.554;7.812;2023-04-29T08:05:24;101133.78;;;10.14;100.00
78198;BME280;67472;51.554;7.812;2023-04-29T08:08:10;101144.66;;;10.09;100.00
78198;BME280;67472;51.554;7.812;2023-04-29T08:10:58;101151.00;;;9.83;100.00
78198;BME280;67472;51.554;7.812;2023-04-29T08:13:45;101160.53;;;9.97;100.00
78198;BME280;67472;51.554;7.812;2023-04-29T08:16:32;101167.59;;;9.96;100.00
78198;BME280;67472;51.554;7.812;2023-04-29T08:19:18;101174.34;;;10.00;100.00
78198;BME280;67472;51.554;7.812;2023-04-29T08:22:05;101184.34;;;10.08;100.00
78198;BME280;67472;51.554;7.812;2023-04-29T08:24:52;101189.97;;;10.03;100.00
78198;BME280;67472;51.554;7.812;2023-04-29T08:27:41;101185.41;;;10.05;100.00
78198;BME280;67472;51.554;7.812;2023-04-29T08:30:29;101194.28;;;10.17;100.00
78198;BME280;67472;51.554;7.812;2023-04-29T08:33:16;101195.63;;;10.23;100.00
78198;BME280;67472;51.554;7.812;2023-04-29T08:36:03;101196.34;;;10.25;100.00
78198;BME280;67472;51.554;7.812;2023-04-29T08:38:50;101192.97;;;10.23;100.00
78198;BME280;67472;51.554;7.812;2023-04-29T08:41:37;101197.03;;;10.39;100.00
78198;BME280;67472;51.554;7.812;2023-04-29T08:44:26;101197.81;;;10.29;100.00
78198;BME280;67472;51.554;7.812;2023-04-29T08:47:12;101206.06;;;10.48;100.00
78198;BME280;67472;51.554;7.812;2023-04-29T08:50:02;101201.25;;;10.42;100.00
78198;BME280;67472;51.554;7.812;2023-04-29T08:52:49;101214.56;;;10.40;100.00
78198;BME280;67472;51.554;7.812;2023-04-29T08:55:40;101213.88;;;10.49;100.00
78198;BME280;67472;51.554;7.812;2023-04-29T08:58:27;101214.50;;;10.53;100.00
78198;BME280;67472;51.554;7.812;2023-04-29T09:01:16;101212.38;;;10.58;100.00
78198;BME280;67472;51.554;7.812;2023-04-29T09:04:13;101221.03;;;10.71;100.00
78198;BME280;67472;51.554;7.812;2023-04-29T09:07:01;101223.19;;;10.66;100.00
78198;BME280;67472;51.554;7.812;2023-04-29T09:09:50;101216.69;;;10.59;100.00
78198;BME280;67472;51.554;7.812;2023-04-29T09:12:39;101207.31;;;10.55;100.00
78198;BME280;67472;51.554;7.812;2023-04-29T09:15:25;101216.19;;;10.89;100.00
78198;BME280;67472;51.554;7.812;2023-04-29T09:18:42;101218.00;;;10.88;100.00
78198;BME280;67472;51.554;7.812;2023-04-29T09:21:29;101218.50;;;10.93;100.00
78198;BME280;67472;51.554;7.812;2023-04-29T09:24:24;101222.63;;;11.08;100.00
78198;BME280;67472;51.554;7.812;2023-04-29T09:27:25;101214.75;;;11.42;100.00
78198;BME280;67472;51.554;7.812;2023-04-29T09:30:12;101221.72;;;11.65;100.00
78198;BME280;67472;51.554;7.812;2023-04-29T09:33:05;101211.84;;;12.11;100.00
78198;BME280;67472;51.554;7.812;2023-04-29T09:35:53;101198.25;;;12.48;100.00
78198;BME280;67472;51.554;7.812;2023-04-29T09:38:52;101183.69;;;12.74;100.00
78198;BME280;67472;51.554;7.812;2023-04-29T09:41:40;101173.91;;;12.95;100.00
78198;BME280;67472;51.554;7.812;2023-04-29T09:44:28;101149.69;;;12.79;100.00
78198;BME280;67472;51.554;7.812;2023-04-29T09:47:15;101133.25;;;13.06;100.00
78198;BME280;67472;51.554;7.812;2023-04-29T09:50:10;101104.19;;;13.04;100.00
78198;BME280;67472;51.554;7.812;2023-04-29T09:52:59;101101.94;;;13.20;100.00
78198;BME280;67472;51.554;7.812;2023-04-29T09:55:57;101082.97;;;12.74;100.00
78198;BME280;67472;51.554;7.812;2023-04-29T09:58:44;101072.66;;;12.80;100.00
78198;BME280;67472;51.554;7.812;2023-04-29T10:01:30;101068.78;;;12.84;100.00
78198;BME280;67472;51.554;7.812;2023-04-29T10:04:18;101067.50;;;12.79;100.00
78198;BME280;67472;51.554;7.812;2023-04-29T10:07:05;101062.03;;;12.71;100.00
78198;BME280;67472;51.554;7.812;2023-04-29T10:09:53;101058.00;;;12.56;100.00
78198;BME280;67472;51.554;7.812;2023-04-29T10:12:41;101059.22;;;12.72;100.00
78198;BME280;67472;51.554;7.812;2023-04-29T10:15:32;101062.41;;;13.17;100.00
78198;BME280;67472;51.554;7.812;2023-04-29T10:18:27;101040.25;;;13.07;100.00
78198;BME280;67472;51.554;7.812;2023-04-29T10:21:18;101030.84;;;13.24;100.00
78198;BME280;67472;51.554;7.812;2023-04-29T10:24:07;101030.56;;;13.17;100.00
78198;BME280;67472;51.554;7.812;2023-04-29T10:26:56;101024.19;;;12.99;100.00
78198;BME280;67472;51.554;7.812;2023-04-29T10:29:44;101019.69;;;12.90;100.00
78198;BME280;67472;51.554;7.812;2023-04-29T10:32:33;101023.19;;;12.90;100.00
78198;BME280;67472;51.554;7.812;2023-04-29T10:35:20;101009.63;;;13.24;100.00
78198;BME280;67472;51.554;7.812;2023-04-29T10:38:14;101008.47;;;13.66;100.00
78198;BME280;67472;51.554;7.812;2023-04-29T10:41:07;101003.72;;;13.70;100.00
78198;BME280;67472;51.554;7.812;2023-04-29T10:43:58;100990.44;;;13.98;100.00
78198;BME280;67472;51.554;7.812;2023-04-29T10:46:44;100973.47;;;14.28;100.00
78198;BME280;67472;51.554;7.812;2023-04-29T10:49:33;100974.75;;;14.05;100.00
78198;BME280;67472;51.554;7.812;2023-04-29T10:52:19;100987.75;;;14.08;100.00
78198;BME280;67472;51.554;7.812;2023-04-29T10:55:07;100970.47;;;13.46;100.00
78198;BME280;67472;51.554;7.812;2023-04-29T10:57:54;100978.13;;;13.40;100.00
78198;BME280;67472;51.554;7.812;2023-04-29T11:00:42;100984.53;;;13.47;100.00
78198;BME280;67472;51.554;7.812;2023-04-29T11:03:51;100972.69;;;13.51;100.00
78198;BME280;67472;51.554;7.812;2023-04-29T11:06:45;100983.56;;;13.38;100.00
78198;BME280;67472;51.554;7.812;2023-04-29T11:09:34;100979.91;;;13.30;100.00
78198;BME280;67472;51.554;7.812;2023-04-29T11:12:22;100984.81;;;13.44;100.00
78198;BME280;67472;51.554;7.812;2023-04-29T11:15:09;100986.75;;;13.23;100.00
78198;BME280;67472;51.554;7.812;2023-04-29T11:17:58;100979.38;;;13.26;100.00
78198;BME280;67472;51.554;7.812;2023-04-29T11:21:12;100972.69;;;13.61;100.00
78198;BME280;67472;51.554;7.812;2023-04-29T11:23:59;100975.75;;;13.37;100.00
78198;BME280;67472;51.554;7.812;2023-04-29T11:26:46;100975.47;;;13.88;100.00
78198;BME280;67472;51.554;7.812;2023-04-29T11:29:32;100979.25;;;14.04;100.00
78198;BME280;67472;51.554;7.812;2023-04-29T11:32:19;100952.53;;;14.15;100.00
78198;BME280;67472;51.554;7.812;2023-04-29T11:35:09;100958.22;;;14.40;100.00
78198;BME280;67472;51.554;7.812;2023-04-29T11:37:58;100950.00;;;14.14;100.00
78198;BME280;67472;51.554;7.812;2023-04-29T11:40:48;100966.22;;;14.21;100.00
78198;BME280;67472;51.554;7.812;2023-04-29T11:43:34;100967.34;;;13.99;100.00
78198;BME280;67472;51.554;7.812;2023-04-29T11:46:20;100974.19;;;14.30;100.00
78198;BME280;67472;51.554;7.812;2023-04-29T11:49:07;100971.00;;;13.79;100.00
78198;BME280;67472;51.554;7.812;2023-04-29T11:51:55;100972.84;;;13.49;100.00
78198;BME280;67472;51.554;7.812;2023-04-29T11:54:41;100980.81;;;13.78;100.00
78198;BME280;67472;51.554;7.812;2023-04-29T11:57:28;100986.53;;;13.93;100.00
78198;BME280;67472;51.554;7.812;2023-04-29T12:00:15;100982.47;;;13.98;100.00
78198;BME280;67472;51.554;7.812;2023-04-29T12:03:06;100976.13;;;14.47;100.00
78198;BME280;67472;51.554;7.812;2023-04-29T12:05:54;100967.03;;;14.40;100.00
78198;BME280;67472;51.554;7.812;2023-04-29T12:08:45;100952.75;;;14.78;100.00
78198;BME280;67472;51.554;7.812;2023-04-29T12:11:32;100949.81;;;14.54;100.00
78198;BME280;67472;51.554;7.812;2023-04-29T12:14:18;100957.63;;;14.55;100.00
78198;BME280;67472;51.554;7.812;2023-04-29T12:17:04;100962.34;;;14.61;100.00
78198;BME280;67472;51.554;7.812;2023-04-29T12:19:51;100970.38;;;14.89;100.00
78198;BME280;67472;51.554;7.812;2023-04-29T12:22:37;100963.16;;;14.99;100.00
78198;BME280;67472;51.554;7.812;2023-04-29T12:25:25;100962.69;;;15.03;100.00
78198;BME280;67472;51.554;7.812;2023-04-29T12:28:13;100958.16;;;14.59;100.00
78198;BME280;67472;51.554;7.812;2023-04-29T12:31:00;100964.63;;;14.56;100.00
78198;BME280;67472;51.554;7.812;2023-04-29T12:33:47;100962.16;;;14.73;100.00
78198;BME280;67472;51.554;7.812;2023-04-29T12:36:33;100963.50;;;14.49;100.00
78198;BME280;67472;51.554;7.812;2023-04-29T12:39:21;100976.56;;;14.33;100.00
78198;BME280;67472;51.554;7.812;2023-04-29T12:42:13;100987.91;;;13.97;100.00
78198;BME280;67472;51.554;7.812;2023-04-29T12:44:59;100995.72;;;14.08;100.00
78198;BME280;67472;51.554;7.812;2023-04-29T12:47:45;100994.91;;;13.88;100.00
78198;BME280;67472;51.554;7.812;2023-04-29T12:50:33;101007.34;;;13.88;100.00
78198;BME280;67472;51.554;7.812;2023-04-29T12:53:19;101002.59;;;13.72;100.00
78198;BME280;67472;51.554;7.812;2023-04-29T12:56:06;101010.16;;;13.86;100.00
78198;BME280;67472;51.554;7.812;2023-04-29T12:58:54;101017.41;;;14.03;100.00
78198;BME280;67472;51.554;7.812;2023-04-29T13:01:40;101010.41;;;14.22;100.00
78198;BME280;67472;51.554;7.812;2023-04-29T13:04:27;101009.44;;;14.13;100.00
78198;BME280;67472;51.554;7.812;2023-04-29T13:07:13;101002.41;;;14.31;100.00
78198;BME280;67472;51.554;7.812;2023-04-29T13:09:59;101007.44;;;14.53;100.00
78198;BME280;67472;51.554;7.812;2023-04-29T13:12:45;100994.63;;;14.76;100.00
78198;BME280;67472;51.554;7.812;2023-04-29T13:15:34;100991.22;;;14.84;100.00
78198;BME280;67472;51.554;7.812;2023-04-29T13:18:20;100981.22;;;14.95;100.00
78198;BME280;67472;51.554;7.812;2023-04-29T13:21:06;100978.28;;;14.98;100.00
78198;BME280;67472;51.554;7.812;2023-04-29T13:23:52;100981.97;;;14.88;100.00
78198;BME280;67472;51.554;7.812;2023-04-29T13:26:38;100978.28;;;14.98;100.00
78198;BME280;67472;51.554;7.812;2023-04-29T13:29:25;100980.22;;;14.69;100.00
78198;BME280;67472;51.554;7.812;2023-04-29T13:32:14;100981.31;;;14.76;100.00
78198;BME280;67472;51.554;7.812;2023-04-29T13:35:01;100991.78;;;14.87;100.00
78198;BME280;67472;51.554;7.812;2023-04-29T13:37:47;100986.66;;;14.76;100.00
78198;BME280;67472;51.554;7.812;2023-04-29T13:40:34;100986.34;;;14.79;100.00
78198;BME280;67472;51.554;7.812;2023-04-29T13:43:20;100994.88;;;14.83;100.00
78198;BME280;67472;51.554;7.812;2023-04-29T13:46:06;100989.84;;;14.80;100.00
78198;BME280;67472;51.554;7.812;2023-04-29T13:48:54;100988.66;;;14.92;100.00
78198;BME280;67472;51.554;7.812;2023-04-29T13:51:40;100997.28;;;14.76;100.00
78198;BME280;67472;51.554;7.812;2023-04-29T13:54:27;101006.31;;;14.46;100.00
78198;BME280;67472;51.554;7.812;2023-04-29T13:57:13;101012.22;;;14.87;100.00
78198;BME280;67472;51.554;7.812;2023-04-29T13:59:59;101007.94;;;15.03;100.00
78198;BME280;67472;51.554;7.812;2023-04-29T14:02:56;101005.47;;;14.92;100.00
78198;BME280;67472;51.554;7.812;2023-04-29T14:05:44;101007.75;;;15.14;100.00
78198;BME280;67472;51.554;7.812;2023-04-29T14:08:30;101009.34;;;14.98;100.00
78198;BME280;67472;51.554;7.812;2023-04-29T14:11:19;101011.34;;;15.23;100.00
78198;BME280;67472;51.554;7.812;2023-04-29T14:14:06;101017.25;;;15.17;100.00
78198;BME280;67472;51.554;7.812;2023-04-29T14:16:52;101006.38;;;15.10;100.00
78198;BME280;67472;51.554;7.812;2023-04-29T14:19:38;101017.75;;;15.03;100.00
78198;BME280;67472;51.554;7.812;2023-04-29T14:22:26;101016.47;;;15.07;100.00
78198;BME280;67472;51.554;7.812;2023-04-29T14:25:13;101021.84;;;14.97;100.00
78198;BME280;67472;51.554;7.812;2023-04-29T14:27:59;101006.47;;;14.91;100.00
78198;BME280;67472;51.554;7.812;2023-04-29T14:30:45;101010.84;;;14.83;100.00
78198;BME280;67472;51.554;7.812;2023-04-29T14:33:32;101019.78;;;14.82;100.00